Accueil
METAR-TAF:

METAR-TAF

Aéroports :

Aéroport Le Mans-Arnage

Le Mans, France

latitude: 47-56N, longitude: 000-12E, altitude: 59 m

Observation

Le bulletin a été fait il y a 19 minutes, à 19:30 UTC
Vent 7 kt de nord
Température 13°C
Humidité 88%
Pression 1025 hPa
Visibilité: 6000 m

METAR: LFRM 191930Z AUTO 36007KT 6000 NSC 13/11 Q1025 NOSIG

Heure: 21:49 (19:49 UTC)

Prévision

Le bulletin a été fait il y a 2 heures et 49 minutes, à 17:00 UTC
Prévision valable du 19 à 18 UTC au 20 à 18 UTC
Vent 8 kt de nord/nord-est
Visibilité: 8000 m
Probabilité 40% :
Temporairement
du 20 à 00 UTC au 20 à 07 UTC
Visibilité: 3000 m
brume

TAF: LFRM 191700Z 1918/2018 03008KT 8000 NSC PROB40 TEMPO 2000/2007 3000 BR

Observations et prévisions météorologiques de plus de 4000 aéroports (messages METAR et TAF).

Les stations disponibles sont représentées par des disques jaunes et rouges sur la carte.

Passer la souris dessus pour voir le nom de la station.

Cliquer dessus pour voir les observations et prévisions météorologiques.

Pour changer de carte: cliquez sur les boutons verts avec une croix noire pour zoomer, sur le bouton vert avec un tiret pour effectuer un zoom arrière, ou sur les flèches vertes pour les cartes adjacentes.


METAR-TAF: